sensor_id;sensor_type;location;lat;lon;timestamp;pressure;altitude;pressure_sealevel;temperature;humidity
48527;BME280;34317;51.660;5.824;2022-12-07T00:01:50;101734.81;;;8.32;60.09
48527;BME280;34317;51.660;5.824;2022-12-07T00:04:17;101733.09;;;8.31;60.46
48527;BME280;34317;51.660;5.824;2022-12-07T00:06:45;101730.50;;;8.30;60.08
48527;BME280;34317;51.660;5.824;2022-12-07T00:09:13;101720.88;;;8.27;60.48
48527;BME280;34317;51.660;5.824;2022-12-07T00:11:41;101729.69;;;8.26;60.25
48527;BME280;34317;51.660;5.824;2022-12-07T00:14:13;101724.50;;;8.23;60.28
48527;BME280;34317;51.660;5.824;2022-12-07T00:16:40;101729.81;;;8.20;60.21
48527;BME280;34317;51.660;5.824;2022-12-07T00:19:09;101717.56;;;8.17;60.21
48527;BME280;34317;51.660;5.824;2022-12-07T00:21:36;101721.13;;;8.15;60.33
48527;BME280;34317;51.660;5.824;2022-12-07T00:24:04;101715.94;;;8.12;60.22
48527;BME280;34317;51.660;5.824;2022-12-07T00:26:32;101717.72;;;8.10;60.49
48527;BME280;34317;51.660;5.824;2022-12-07T00:29:02;101721.25;;;8.09;60.37
48527;BME280;34317;51.660;5.824;2022-12-07T00:31:30;101719.59;;;8.05;60.15
48527;BME280;34317;51.660;5.824;2022-12-07T00:33:58;101717.84;;;8.04;60.26
48527;BME280;34317;51.660;5.824;2022-12-07T00:36:25;101708.22;;;8.01;60.54
48527;BME280;34317;51.660;5.824;2022-12-07T00:38:53;101712.66;;;8.01;60.62
48527;BME280;34317;51.660;5.824;2022-12-07T00:41:22;101712.66;;;7.99;60.50
48527;BME280;34317;51.660;5.824;2022-12-07T00:43:49;101712.69;;;7.97;60.50
48527;BME280;34317;51.660;5.824;2022-12-07T00:46:16;101707.47;;;7.94;60.51
48527;BME280;34317;51.660;5.824;2022-12-07T00:48:44;101708.38;;;7.93;60.36
48527;BME280;34317;51.660;5.824;2022-12-07T00:51:12;101712.75;;;7.94;60.59
48527;BME280;34317;51.660;5.824;2022-12-07T00:53:39;101713.69;;;7.92;60.25
48527;BME280;34317;51.660;5.824;2022-12-07T00:56:08;101707.56;;;7.91;60.32
48527;BME280;34317;51.660;5.824;2022-12-07T00:58:35;101706.66;;;7.91;60.43
48527;BME280;34317;51.660;5.824;2022-12-07T01:01:03;101709.34;;;7.89;60.34
48527;BME280;34317;51.660;5.824;2022-12-07T01:03:30;101702.31;;;7.88;60.66
48527;BME280;34317;51.660;5.824;2022-12-07T01:05:57;101699.69;;;7.88;60.36
48527;BME280;34317;51.660;5.824;2022-12-07T01:08:25;101704.09;;;7.89;60.35
48527;BME280;34317;51.660;5.824;2022-12-07T01:10:59;101702.31;;;7.88;60.58
48527;BME280;34317;51.660;5.824;2022-12-07T01:13:27;101697.06;;;7.88;60.63
48527;BME280;34317;51.660;5.824;2022-12-07T01:15:58;101700.56;;;7.87;60.57
48527;BME280;34317;51.660;5.824;2022-12-07T01:18:27;101700.56;;;7.87;60.58
48527;BME280;34317;51.660;5.824;2022-12-07T01:23:30;101707.66;;;7.85;60.28
48527;BME280;34317;51.660;5.824;2022-12-07T01:25:58;101705.94;;;7.84;60.21
48527;BME280;34317;51.660;5.824;2022-12-07T01:28:25;101703.28;;;7.84;60.32
48527;BME280;34317;51.660;5.824;2022-12-07T01:30:57;101711.25;;;7.81;60.42
48527;BME280;34317;51.660;5.824;2022-12-07T01:33:24;101710.41;;;7.79;60.40
48527;BME280;34317;51.660;5.824;2022-12-07T01:35:51;101706.94;;;7.77;60.61
48527;BME280;34317;51.660;5.824;2022-12-07T01:38:17;101709.63;;;7.74;60.33
48527;BME280;34317;51.660;5.824;2022-12-07T01:40:44;101704.44;;;7.71;60.35
48527;BME280;34317;51.660;5.824;2022-12-07T01:43:16;101715.03;;;7.68;60.32
48527;BME280;34317;51.660;5.824;2022-12-07T01:45:44;101705.41;;;7.65;60.50
48527;BME280;34317;51.660;5.824;2022-12-07T01:48:12;101700.19;;;7.62;60.36
48527;BME280;34317;51.660;5.824;2022-12-07T01:50:41;101702.84;;;7.60;60.54
48527;BME280;34317;51.660;5.824;2022-12-07T01:53:09;101701.13;;;7.59;60.40
48527;BME280;34317;51.660;5.824;2022-12-07T01:55:37;101702.94;;;7.57;60.62
48527;BME280;34317;51.660;5.824;2022-12-07T01:58:05;101701.19;;;7.56;60.57
48527;BME280;34317;51.660;5.824;2022-12-07T02:00:32;101706.44;;;7.56;60.66
48527;BME280;34317;51.660;5.824;2022-12-07T02:05:52;101702.13;;;7.54;60.29
48527;BME280;34317;51.660;5.824;2022-12-07T02:08:19;101691.59;;;7.52;60.69
48527;BME280;34317;51.660;5.824;2022-12-07T02:10:47;101695.13;;;7.51;60.60
48527;BME280;34317;51.660;5.824;2022-12-07T02:13:15;101685.50;;;7.49;60.49
48527;BME280;34317;51.660;5.824;2022-12-07T02:15:57;101689.97;;;7.45;60.34
48527;BME280;34317;51.660;5.824;2022-12-07T02:18:38;101694.41;;;7.43;60.51
48527;BME280;34317;51.660;5.824;2022-12-07T02:28:37;101706.91;;;7.32;60.49
48527;BME280;34317;51.660;5.824;2022-12-07T02:31:14;101706.94;;;7.29;60.42
48527;BME280;34317;51.660;5.824;2022-12-07T02:33:44;101697.28;;;7.29;60.35
48527;BME280;34317;51.660;5.824;2022-12-07T02:36:21;101691.13;;;7.29;60.51
48527;BME280;34317;51.660;5.824;2022-12-07T02:38:52;101696.47;;;7.26;60.41
48527;BME280;34317;51.660;5.824;2022-12-07T02:41:26;101698.28;;;7.24;60.25
48527;BME280;34317;51.660;5.824;2022-12-07T02:43:54;101690.38;;;7.24;60.74
48527;BME280;34317;51.660;5.824;2022-12-07T02:46:25;101693.00;;;7.24;60.67
48527;BME280;34317;51.660;5.824;2022-12-07T02:48:54;101684.25;;;7.21;60.23
48527;BME280;34317;51.660;5.824;2022-12-07T02:51:21;101686.03;;;7.19;60.44
48527;BME280;34317;51.660;5.824;2022-12-07T02:53:48;101689.56;;;7.18;60.60
48527;BME280;34317;51.660;5.824;2022-12-07T02:59:02;101686.09;;;7.16;60.66
48527;BME280;34317;51.660;5.824;2022-12-07T03:04:05;101694.94;;;7.12;60.57
48527;BME280;34317;51.660;5.824;2022-12-07T03:06:36;101700.22;;;7.12;60.69
48527;BME280;34317;51.660;5.824;2022-12-07T03:09:15;101698.47;;;7.11;60.28
48527;BME280;34317;51.660;5.824;2022-12-07T03:11:47;101694.13;;;7.09;60.63
48527;BME280;34317;51.660;5.824;2022-12-07T03:14:19;101699.41;;;7.07;60.75
48527;BME280;34317;51.660;5.824;2022-12-07T03:16:50;101696.78;;;7.07;60.55
48527;BME280;34317;51.660;5.824;2022-12-07T03:19:20;101696.78;;;7.07;60.59
48527;BME280;34317;51.660;5.824;2022-12-07T03:21:52;101694.13;;;7.09;60.53
48527;BME280;34317;51.660;5.824;2022-12-07T03:24:22;101695.00;;;7.09;60.74
48527;BME280;34317;51.660;5.824;2022-12-07T03:26:52;101701.09;;;7.11;60.78
48527;BME280;34317;51.660;5.824;2022-12-07T03:29:25;101695.00;;;7.09;60.37
48527;BME280;34317;51.660;5.824;2022-12-07T03:31:57;101693.25;;;7.08;60.38
48527;BME280;34317;51.660;5.824;2022-12-07T03:34:30;101691.50;;;7.07;60.39
48527;BME280;34317;51.660;5.824;2022-12-07T03:37:03;101690.66;;;7.07;60.88
48527;BME280;34317;51.660;5.824;2022-12-07T03:42:25;101691.50;;;7.07;60.40
48527;BME280;34317;51.660;5.824;2022-12-07T03:44:52;101691.50;;;7.07;60.94
48527;BME280;34317;51.660;5.824;2022-12-07T03:47:22;101687.97;;;7.08;60.52
48527;BME280;34317;51.660;5.824;2022-12-07T03:49:54;101682.69;;;7.08;60.57
48527;BME280;34317;51.660;5.824;2022-12-07T03:52:29;101686.22;;;7.10;60.90
48527;BME280;34317;51.660;5.824;2022-12-07T03:54:58;101692.31;;;7.12;60.79
48527;BME280;34317;51.660;5.824;2022-12-07T03:57:27;101681.72;;;7.14;60.77
48527;BME280;34317;51.660;5.824;2022-12-07T03:59:55;101684.34;;;7.15;60.44
48527;BME280;34317;51.660;5.824;2022-12-07T04:02:24;101691.38;;;7.16;60.77
48527;BME280;34317;51.660;5.824;2022-12-07T04:04:52;101684.31;;;7.17;60.93
48527;BME280;34317;51.660;5.824;2022-12-07T04:07:19;101679.88;;;7.19;60.93
48527;BME280;34317;51.660;5.824;2022-12-07T04:09:46;101682.50;;;7.20;60.65
48527;BME280;34317;51.660;5.824;2022-12-07T04:12:13;101682.47;;;7.24;61.02
48527;BME280;34317;51.660;5.824;2022-12-07T04:14:40;101681.53;;;7.26;60.76
48527;BME280;34317;51.660;5.824;2022-12-07T04:17:08;101683.22;;;7.30;60.76
48527;BME280;34317;51.660;5.824;2022-12-07T04:19:35;101685.81;;;7.32;60.79
48527;BME280;34317;51.660;5.824;2022-12-07T04:22:03;101682.25;;;7.34;60.57
48527;BME280;34317;51.660;5.824;2022-12-07T04:24:30;101678.72;;;7.37;60.88
48527;BME280;34317;51.660;5.824;2022-12-07T04:26:57;101675.16;;;7.38;61.05
48527;BME280;34317;51.660;5.824;2022-12-07T04:29:24;101684.75;;;7.42;60.86
48527;BME280;34317;51.660;5.824;2022-12-07T04:31:51;101691.75;;;7.45;60.88
48527;BME280;34317;51.660;5.824;2022-12-07T04:34:18;101691.75;;;7.45;60.91
48527;BME280;34317;51.660;5.824;2022-12-07T04:36:46;101682.91;;;7.46;60.90
48527;BME280;34317;51.660;5.824;2022-12-07T04:39:17;101689.09;;;7.46;60.49
48527;BME280;34317;51.660;5.824;2022-12-07T04:41:44;101678.53;;;7.46;60.96
48527;BME280;34317;51.660;5.824;2022-12-07T04:44:11;101664.44;;;7.47;60.91
48527;BME280;34317;51.660;5.824;2022-12-07T04:46:41;101655.66;;;7.48;60.78
48527;BME280;34317;51.660;5.824;2022-12-07T04:49:08;101661.75;;;7.52;60.83
48527;BME280;34317;51.660;5.824;2022-12-07T04:51:35;101661.69;;;7.53;60.63
48527;BME280;34317;51.660;5.824;2022-12-07T04:54:02;101653.72;;;7.56;60.83
48527;BME280;34317;51.660;5.824;2022-12-07T04:56:29;101652.84;;;7.57;60.93
48527;BME280;34317;51.660;5.824;2022-12-07T04:58:57;101657.19;;;7.58;60.59
48527;BME280;34317;51.660;5.824;2022-12-07T05:01:24;101658.97;;;7.59;60.64
48527;BME280;34317;51.660;5.824;2022-12-07T05:03:51;101652.78;;;7.59;60.55
48527;BME280;34317;51.660;5.824;2022-12-07T05:06:18;101657.19;;;7.58;60.70
48527;BME280;34317;51.660;5.824;2022-12-07T05:08:45;101660.75;;;7.57;60.38
48527;BME280;34317;51.660;5.824;2022-12-07T05:11:12;101659.00;;;7.56;60.75
48527;BME280;34317;51.660;5.824;2022-12-07T05:13:59;101652.91;;;7.54;60.63
48527;BME280;34317;51.660;5.824;2022-12-07T05:16:26;101652.06;;;7.52;60.59
48527;BME280;34317;51.660;5.824;2022-12-07T05:18:53;101650.31;;;7.51;60.63
48527;BME280;34317;51.660;5.824;2022-12-07T05:21:20;101665.28;;;7.49;60.52
48527;BME280;34317;51.660;5.824;2022-12-07T05:23:47;101662.72;;;7.46;60.37
48527;BME280;34317;51.660;5.824;2022-12-07T05:26:14;101666.25;;;7.45;60.39
48527;BME280;34317;51.660;5.824;2022-12-07T05:28:41;101668.03;;;7.43;60.53
48527;BME280;34317;51.660;5.824;2022-12-07T05:31:08;101660.13;;;7.43;60.39
48527;BME280;34317;51.660;5.824;2022-12-07T05:33:35;101666.28;;;7.42;60.58
48527;BME280;34317;51.660;5.824;2022-12-07T05:36:02;101665.44;;;7.41;60.60
48527;BME280;34317;51.660;5.824;2022-12-07T05:38:32;101666.28;;;7.42;60.46
48527;BME280;34317;51.660;5.824;2022-12-07T05:41:00;101665.44;;;7.41;60.46
48527;BME280;34317;51.660;5.824;2022-12-07T05:43:28;101661.94;;;7.41;60.57
48527;BME280;34317;51.660;5.824;2022-12-07T05:45:55;101659.31;;;7.41;60.77
48527;BME280;34317;51.660;5.824;2022-12-07T05:48:22;101660.19;;;7.40;60.71
48527;BME280;34317;51.660;5.824;2022-12-07T05:50:49;101662.81;;;7.40;60.87
48527;BME280;34317;51.660;5.824;2022-12-07T05:53:16;101657.56;;;7.40;60.66
48527;BME280;34317;51.660;5.824;2022-12-07T05:55:48;101656.69;;;7.39;60.59
48527;BME280;34317;51.660;5.824;2022-12-07T05:58:15;101661.09;;;7.39;60.42
48527;BME280;34317;51.660;5.824;2022-12-07T06:01:01;101655.84;;;7.37;60.46
48527;BME280;34317;51.660;5.824;2022-12-07T06:03:28;101645.34;;;7.36;60.47
48527;BME280;34317;51.660;5.824;2022-12-07T06:05:55;101649.75;;;7.34;60.47
48527;BME280;34317;51.660;5.824;2022-12-07T06:08:22;101655.09;;;7.31;60.58
48527;BME280;34317;51.660;5.824;2022-12-07T06:10:49;101644.59;;;7.29;60.52
48527;BME280;34317;51.660;5.824;2022-12-07T06:13:38;101643.78;;;7.26;60.57
48527;BME280;34317;51.660;5.824;2022-12-07T06:16:12;101645.56;;;7.24;60.58
48527;BME280;34317;51.660;5.824;2022-12-07T06:18:39;101637.69;;;7.22;60.53
48527;BME280;34317;51.660;5.824;2022-12-07T06:21:06;101654.38;;;7.22;60.80
48527;BME280;34317;51.660;5.824;2022-12-07T06:23:33;101649.09;;;7.22;60.92
48527;BME280;34317;51.660;5.824;2022-12-07T06:26:00;101650.84;;;7.24;60.86
48527;BME280;34317;51.660;5.824;2022-12-07T06:28:27;101650.84;;;7.24;60.92
48527;BME280;34317;51.660;5.824;2022-12-07T06:31:01;101656.03;;;7.27;60.92
48527;BME280;34317;51.660;5.824;2022-12-07T06:33:28;101652.53;;;7.26;60.87
48527;BME280;34317;51.660;5.824;2022-12-07T06:35:55;101656.03;;;7.27;60.72
48527;BME280;34317;51.660;5.824;2022-12-07T06:38:22;101647.25;;;7.28;61.11
48527;BME280;34317;51.660;5.824;2022-12-07T06:40:49;101648.13;;;7.28;60.61
48527;BME280;34317;51.660;5.824;2022-12-07T06:43:16;101648.97;;;7.29;60.95
48527;BME280;34317;51.660;5.824;2022-12-07T06:45:43;101654.25;;;7.29;60.81
48527;BME280;34317;51.660;5.824;2022-12-07T06:48:10;101654.25;;;7.29;60.70
48527;BME280;34317;51.660;5.824;2022-12-07T06:50:37;101654.25;;;7.29;60.62
48527;BME280;34317;51.660;5.824;2022-12-07T06:53:04;101657.78;;;7.28;60.84
48527;BME280;34317;51.660;5.824;2022-12-07T06:55:31;101659.56;;;7.27;60.50
48527;BME280;34317;51.660;5.824;2022-12-07T06:57:58;101659.59;;;7.26;60.56
48527;BME280;34317;51.660;5.824;2022-12-07T07:00:25;101657.84;;;7.25;60.74
48527;BME280;34317;51.660;5.824;2022-12-07T07:02:52;101658.75;;;7.24;60.71
48527;BME280;34317;51.660;5.824;2022-12-07T07:05:19;101662.25;;;7.22;60.49
48527;BME280;34317;51.660;5.824;2022-12-07T07:07:48;101665.84;;;7.20;60.83
48527;BME280;34317;51.660;5.824;2022-12-07T07:10:35;101663.22;;;7.18;60.64
48527;BME280;34317;51.660;5.824;2022-12-07T07:13:03;101657.09;;;7.18;60.61
48527;BME280;34317;51.660;5.824;2022-12-07T07:15:31;101663.22;;;7.18;60.70
48527;BME280;34317;51.660;5.824;2022-12-07T07:17:58;101666.75;;;7.17;60.69
48527;BME280;34317;51.660;5.824;2022-12-07T07:20:33;101666.81;;;7.14;60.70
48527;BME280;34317;51.660;5.824;2022-12-07T07:23:00;101661.59;;;7.11;60.60
48527;BME280;34317;51.660;5.824;2022-12-07T07:25:27;101668.66;;;7.08;60.35
48527;BME280;34317;51.660;5.824;2022-12-07T07:27:54;101672.25;;;7.05;60.79
48527;BME280;34317;51.660;5.824;2022-12-07T07:30:21;101673.13;;;7.04;60.71
48527;BME280;34317;51.660;5.824;2022-12-07T07:32:48;101676.69;;;7.01;60.45
48527;BME280;34317;51.660;5.824;2022-12-07T07:35:15;101666.16;;;7.00;60.71
48527;BME280;34317;51.660;5.824;2022-12-07T07:37:42;101672.34;;;6.99;60.62
48527;BME280;34317;51.660;5.824;2022-12-07T07:40:09;101675.88;;;6.96;60.42
48527;BME280;34317;51.660;5.824;2022-12-07T07:42:36;101667.97;;;6.96;60.73
48527;BME280;34317;51.660;5.824;2022-12-07T07:45:03;101677.66;;;6.96;60.70
48527;BME280;34317;51.660;5.824;2022-12-07T07:47:31;101673.28;;;6.95;60.85
48527;BME280;34317;51.660;5.824;2022-12-07T07:49:58;101674.19;;;6.94;60.93
48527;BME280;34317;51.660;5.824;2022-12-07T07:52:25;101673.34;;;6.92;60.82
48527;BME280;34317;51.660;5.824;2022-12-07T07:54:52;101672.50;;;6.90;60.70
48527;BME280;34317;51.660;5.824;2022-12-07T07:57:19;101671.59;;;6.89;60.67
48527;BME280;34317;51.660;5.824;2022-12-07T07:59:46;101678.63;;;6.90;60.71
48527;BME280;34317;51.660;5.824;2022-12-07T08:02:13;101688.28;;;6.90;60.67
48527;BME280;34317;51.660;5.824;2022-12-07T08:04:41;101684.75;;;6.91;60.66
48527;BME280;34317;51.660;5.824;2022-12-07T08:07:08;101684.72;;;6.92;60.75
48527;BME280;34317;51.660;5.824;2022-12-07T08:09:35;101679.44;;;6.94;60.72
48527;BME280;34317;51.660;5.824;2022-12-07T08:12:02;101680.31;;;6.94;61.00
48527;BME280;34317;51.660;5.824;2022-12-07T08:14:30;101681.16;;;6.95;60.93
48527;BME280;34317;51.660;5.824;2022-12-07T08:16:57;101671.53;;;6.95;60.83
48527;BME280;34317;51.660;5.824;2022-12-07T08:19:24;101667.13;;;6.96;60.83
48527;BME280;34317;51.660;5.824;2022-12-07T08:21:51;101672.38;;;6.96;60.91
48527;BME280;34317;51.660;5.824;2022-12-07T08:24:18;101678.50;;;6.96;60.65
48527;BME280;34317;51.660;5.824;2022-12-07T08:26:45;101682.03;;;6.97;61.00
48527;BME280;34317;51.660;5.824;2022-12-07T08:29:12;101686.41;;;6.98;60.70
48527;BME280;34317;51.660;5.824;2022-12-07T08:31:38;101682.88;;;6.99;60.98
48527;BME280;34317;51.660;5.824;2022-12-07T08:34:06;101686.38;;;6.99;60.69
48527;BME280;34317;51.660;5.824;2022-12-07T08:36:33;101693.34;;;7.02;60.95
48527;BME280;34317;51.660;5.824;2022-12-07T08:39:00;101695.97;;;7.02;61.02
48527;BME280;34317;51.660;5.824;2022-12-07T08:41:47;101696.81;;;7.04;60.77
48527;BME280;34317;51.660;5.824;2022-12-07T08:44:14;101698.56;;;7.05;60.59
48527;BME280;34317;51.660;5.824;2022-12-07T08:46:51;101701.19;;;7.07;60.98
48527;BME280;34317;51.660;5.824;2022-12-07T08:49:25;101694.13;;;7.09;61.06
48527;BME280;34317;51.660;5.824;2022-12-07T08:51:54;101694.94;;;7.12;61.13
48527;BME280;34317;51.660;5.824;2022-12-07T08:54:21;101693.09;;;7.17;61.05
48527;BME280;34317;51.660;5.824;2022-12-07T08:56:48;101696.56;;;7.19;61.26
48527;BME280;34317;51.660;5.824;2022-12-07T08:59:24;101696.53;;;7.22;60.90
48527;BME280;34317;51.660;5.824;2022-12-07T09:01:52;101698.19;;;7.27;61.08
48527;BME280;34317;51.660;5.824;2022-12-07T09:04:19;101691.13;;;7.29;60.77
48527;BME280;34317;51.660;5.824;2022-12-07T09:06:47;101698.97;;;7.33;60.86
48527;BME280;34317;51.660;5.824;2022-12-07T09:09:14;101691.03;;;7.35;60.82
48527;BME280;34317;51.660;5.824;2022-12-07T09:11:41;101684.81;;;7.39;60.84
48527;BME280;34317;51.660;5.824;2022-12-07T09:14:08;101683.84;;;7.43;61.17
48527;BME280;34317;51.660;5.824;2022-12-07T09:16:35;101680.25;;;7.47;60.74
48527;BME280;34317;51.660;5.824;2022-12-07T09:19:02;101688.09;;;7.52;60.88
48527;BME280;34317;51.660;5.824;2022-12-07T09:21:29;101688.00;;;7.56;61.19
48527;BME280;34317;51.660;5.824;2022-12-07T09:23:56;101688.78;;;7.62;61.20
48527;BME280;34317;51.660;5.824;2022-12-07T09:26:23;101691.31;;;7.68;60.95
48527;BME280;34317;51.660;5.824;2022-12-07T09:28:50;101685.00;;;7.75;61.24
48527;BME280;34317;51.660;5.824;2022-12-07T09:31:17;101693.63;;;7.83;61.33
48527;BME280;34317;51.660;5.824;2022-12-07T09:33:53;101691.72;;;7.91;61.25
48527;BME280;34317;51.660;5.824;2022-12-07T09:36:20;101697.72;;;7.98;61.38
48527;BME280;34317;51.660;5.824;2022-12-07T09:38:47;101700.22;;;8.06;61.40
48527;BME280;34317;51.660;5.824;2022-12-07T09:41:16;101700.97;;;8.12;61.37
48527;BME280;34317;51.660;5.824;2022-12-07T09:43:43;101706.97;;;8.19;61.27
48527;BME280;34317;51.660;5.824;2022-12-07T09:46:12;101696.34;;;8.22;61.17
48527;BME280;34317;51.660;5.824;2022-12-07T09:48:40;101697.13;;;8.27;61.11
48527;BME280;34317;51.660;5.824;2022-12-07T09:51:19;101698.78;;;8.31;61.00
48527;BME280;34317;51.660;5.824;2022-12-07T09:53:51;101697.81;;;8.35;61.22
48527;BME280;34317;51.660;5.824;2022-12-07T09:56:18;101691.53;;;8.41;61.23
48527;BME280;34317;51.660;5.824;2022-12-07T09:58:46;101687.91;;;8.47;61.30
48527;BME280;34317;51.660;5.824;2022-12-07T10:03:42;101681.47;;;8.60;61.22
48527;BME280;34317;51.660;5.824;2022-12-07T10:06:10;101684.81;;;8.68;61.40
48527;BME280;34317;51.660;5.824;2022-12-07T10:08:38;101688.13;;;8.76;61.30
48527;BME280;34317;51.660;5.824;2022-12-07T10:11:07;101680.88;;;8.85;61.12
48527;BME280;34317;51.660;5.824;2022-12-07T10:13:41;101673.66;;;8.93;61.20
48527;BME280;34317;51.660;5.824;2022-12-07T10:18:52;101676.72;;;9.10;61.13
48527;BME280;34317;51.660;5.824;2022-12-07T10:21:20;101669.41;;;9.20;61.46
48527;BME280;34317;51.660;5.824;2022-12-07T10:24:00;101667.41;;;9.30;61.29
48527;BME280;34317;51.660;5.824;2022-12-07T10:31:40;101659.72;;;9.53;61.35
48527;BME280;34317;51.660;5.824;2022-12-07T10:34:21;101660.44;;;9.59;61.08
48527;BME280;34317;51.660;5.824;2022-12-07T10:36:51;101654.19;;;9.63;60.93
48527;BME280;34317;51.660;5.824;2022-12-07T10:39:19;101654.06;;;9.66;61.01
48527;BME280;34317;51.660;5.824;2022-12-07T10:44:23;101638.94;;;9.71;61.24
48527;BME280;34317;51.660;5.824;2022-12-07T10:56:56;101626.25;;;9.84;60.91
48527;BME280;34317;51.660;5.824;2022-12-07T11:06:58;101621.63;;;9.90;60.97
48527;BME280;34317;51.660;5.824;2022-12-07T11:15:07;101610.69;;;10.03;60.78
48527;BME280;34317;51.660;5.824;2022-12-07T11:17:56;101605.31;;;10.06;60.63
48527;BME280;34317;51.660;5.824;2022-12-07T11:20:34;101599.09;;;10.07;60.89
48527;BME280;34317;51.660;5.824;2022-12-07T11:23:17;101599.91;;;10.09;60.95
48527;BME280;34317;51.660;5.824;2022-12-07T11:31:24;101601.53;;;10.13;60.87
48527;BME280;34317;51.660;5.824;2022-12-07T11:36:59;101590.78;;;10.19;60.79
48527;BME280;34317;51.660;5.824;2022-12-07T11:39:36;101588.13;;;10.19;60.87
48527;BME280;34317;51.660;5.824;2022-12-07T11:42:05;101587.19;;;10.20;60.70
48527;BME280;34317;51.660;5.824;2022-12-07T11:44:50;101588.94;;;10.21;60.84
48527;BME280;34317;51.660;5.824;2022-12-07T11:47:38;101581.81;;;10.23;60.59
48527;BME280;34317;51.660;5.824;2022-12-07T11:50:26;101576.41;;;10.26;60.88
48527;BME280;34317;51.660;5.824;2022-12-07T11:52:58;101576.31;;;10.29;60.88
48527;BME280;34317;51.660;5.824;2022-12-07T11:55:32;101575.31;;;10.33;60.86
48527;BME280;34317;51.660;5.824;2022-12-07T12:00:39;101571.34;;;10.47;60.83
48527;BME280;34317;51.660;5.824;2022-12-07T12:03:12;101568.63;;;10.50;60.88
48527;BME280;34317;51.660;5.824;2022-12-07T12:05:41;101570.16;;;10.57;60.88
48527;BME280;34317;51.660;5.824;2022-12-07T12:08:26;101566.47;;;10.61;60.96
48527;BME280;34317;51.660;5.824;2022-12-07T12:22:13;101559.03;;;10.73;60.62
48527;BME280;34317;51.660;5.824;2022-12-07T12:24:42;101567.88;;;10.71;60.45
48527;BME280;34317;51.660;5.824;2022-12-07T12:27:14;101560.88;;;10.70;60.39
48527;BME280;34317;51.660;5.824;2022-12-07T12:29:42;101563.53;;;10.70;60.41
48527;BME280;34317;51.660;5.824;2022-12-07T12:34:38;101557.41;;;10.68;60.41
48527;BME280;34317;51.660;5.824;2022-12-07T12:40:24;101548.66;;;10.66;60.39
48527;BME280;34317;51.660;5.824;2022-12-07T12:42:58;101548.75;;;10.63;60.46
48527;BME280;34317;51.660;5.824;2022-12-07T12:45:26;101545.19;;;10.64;60.34
48527;BME280;34317;51.660;5.824;2022-12-07T12:48:03;101539.91;;;10.64;60.58
48527;BME280;34317;51.660;5.824;2022-12-07T12:50:37;101539.91;;;10.64;60.61
48527;BME280;34317;51.660;5.824;2022-12-07T12:53:12;101536.41;;;10.62;60.34
48527;BME280;34317;51.660;5.824;2022-12-07T13:00:46;101522.34;;;10.60;60.47
48527;BME280;34317;51.660;5.824;2022-12-07T13:03:27;101525.19;;;10.56;60.41
48527;BME280;34317;51.660;5.824;2022-12-07T13:08:40;101519.19;;;10.49;60.38
48527;BME280;34317;51.660;5.824;2022-12-07T13:11:18;101521.03;;;10.47;60.56
48527;BME280;34317;51.660;5.824;2022-12-07T13:13:46;101521.03;;;10.47;60.54
48527;BME280;34317;51.660;5.824;2022-12-07T13:18:41;101511.38;;;10.46;60.64
48527;BME280;34317;51.660;5.824;2022-12-07T13:28:45;101496.53;;;10.42;60.23
48527;BME280;34317;51.660;5.824;2022-12-07T13:33:47;101496.53;;;10.42;60.34
48527;BME280;34317;51.660;5.824;2022-12-07T13:36:17;101485.94;;;10.42;60.41
48527;BME280;34317;51.660;5.824;2022-12-07T13:38:48;101482.34;;;10.43;60.48
48527;BME280;34317;51.660;5.824;2022-12-07T13:41:17;101484.94;;;10.44;60.43
48527;BME280;34317;51.660;5.824;2022-12-07T13:43:59;101476.97;;;10.46;60.34
48527;BME280;34317;51.660;5.824;2022-12-07T13:46:48;101470.81;;;10.45;60.33
48527;BME280;34317;51.660;5.824;2022-12-07T13:49:17;101464.63;;;10.45;60.26
48527;BME280;34317;51.660;5.824;2022-12-07T13:51:44;101466.38;;;10.46;60.25
48527;BME280;34317;51.660;5.824;2022-12-07T13:54:11;101461.06;;;10.46;60.23
48527;BME280;34317;51.660;5.824;2022-12-07T13:56:39;101464.63;;;10.45;60.17
48527;BME280;34317;51.660;5.824;2022-12-07T13:59:26;101458.50;;;10.43;60.19
48527;BME280;34317;51.660;5.824;2022-12-07T14:01:53;101468.19;;;10.44;60.19
48527;BME280;34317;51.660;5.824;2022-12-07T14:04:37;101457.59;;;10.44;60.25
48527;BME280;34317;51.660;5.824;2022-12-07T14:12:22;101459.22;;;10.48;60.21
48527;BME280;34317;51.660;5.824;2022-12-07T14:14:49;101457.47;;;10.47;60.37
48527;BME280;34317;51.660;5.824;2022-12-07T14:17:17;101462.78;;;10.47;60.30
48527;BME280;34317;51.660;5.824;2022-12-07T14:19:46;101457.47;;;10.47;60.17
48527;BME280;34317;51.660;5.824;2022-12-07T14:22:22;101445.19;;;10.46;60.05
48527;BME280;34317;51.660;5.824;2022-12-07T14:24:49;101452.31;;;10.44;60.24
48527;BME280;34317;51.660;5.824;2022-12-07T14:27:17;101445.28;;;10.43;60.08
48527;BME280;34317;51.660;5.824;2022-12-07T14:29:45;101441.81;;;10.41;60.11
48527;BME280;34317;51.660;5.824;2022-12-07T14:32:19;101447.13;;;10.41;60.14
48527;BME280;34317;51.660;5.824;2022-12-07T14:34:56;101442.81;;;10.38;59.99
48527;BME280;34317;51.660;5.824;2022-12-07T14:37:24;101443.75;;;10.36;60.01
48527;BME280;34317;51.660;5.824;2022-12-07T14:39:51;101440.28;;;10.33;60.07
48527;BME280;34317;51.660;5.824;2022-12-07T14:42:18;101440.41;;;10.30;60.14
48527;BME280;34317;51.660;5.824;2022-12-07T14:44:45;101436.94;;;10.28;60.01
48527;BME280;34317;51.660;5.824;2022-12-07T14:47:12;101439.66;;;10.25;59.95
48527;BME280;34317;51.660;5.824;2022-12-07T14:49:59;101444.16;;;10.23;59.97
48527;BME280;34317;51.660;5.824;2022-12-07T14:52:32;101450.41;;;10.21;59.96
48527;BME280;34317;51.660;5.824;2022-12-07T14:55:27;101449.66;;;10.17;59.80
48527;BME280;34317;51.660;5.824;2022-12-07T14:57:55;101444.47;;;10.14;60.01
48527;BME280;34317;51.660;5.824;2022-12-07T15:00:22;101433.19;;;10.07;59.89
48527;BME280;34317;51.660;5.824;2022-12-07T15:02:50;101427.25;;;10.01;59.84